createdAt,value
2018-10-12T00:00:37.242Z,15.50
2018-10-12T00:03:04.767Z,14.73
2018-10-12T00:05:31.990Z,15.20
2018-10-12T00:07:59.241Z,15.70
2018-10-12T00:10:26.417Z,16.27
2018-10-12T00:12:53.707Z,15.60
2018-10-12T00:15:20.863Z,15.30
2018-10-12T00:17:48.041Z,17.07
2018-10-12T00:20:15.251Z,15.93
2018-10-12T00:22:42.437Z,17.10
2018-10-12T00:25:09.581Z,16.73
2018-10-12T00:27:36.777Z,15.97
2018-10-12T00:30:03.997Z,16.90
2018-10-12T00:32:31.146Z,15.80
2018-10-12T00:34:58.456Z,15.90
2018-10-12T00:37:25.604Z,16.60
2018-10-12T00:39:52.768Z,16.67
2018-10-12T00:42:20.041Z,15.93
2018-10-12T00:44:47.204Z,16.53
2018-10-12T00:47:14.408Z,16.77
2018-10-12T00:49:41.693Z,16.97
2018-10-12T00:52:08.847Z,17.47
2018-10-12T00:54:35.993Z,17.10
2018-10-12T00:57:06.649Z,16.63
2018-10-12T00:59:33.789Z,17.77
2018-10-12T01:02:00.948Z,17.50
2018-10-12T01:04:28.147Z,18.43
2018-10-12T01:06:55.291Z,18.27
2018-10-12T01:09:22.460Z,17.80
2018-10-12T01:11:49.824Z,17.93
2018-10-12T01:14:16.975Z,16.77
2018-10-12T01:16:44.136Z,17.10
2018-10-12T01:19:11.461Z,17.17
2018-10-12T01:21:38.664Z,16.47
2018-10-12T01:24:05.817Z,18.63
2018-10-12T01:26:33.049Z,17.93
2018-10-12T01:29:00.202Z,19.07
2018-10-12T01:31:27.874Z,18.67
2018-10-12T01:33:55.108Z,18.33
2018-10-12T01:36:22.273Z,19.27
2018-10-12T01:38:50.437Z,18.63
2018-10-12T01:41:17.620Z,17.47
2018-10-12T01:43:44.947Z,18.37
2018-10-12T01:46:12.120Z,18.97
2018-10-12T01:48:39.447Z,19.67
2018-10-12T01:51:06.685Z,18.23
2018-10-12T01:53:34.144Z,17.90
2018-10-12T01:56:02.685Z,18.50
2018-10-12T01:58:31.356Z,18.50
2018-10-12T02:00:58.534Z,19.83
2018-10-12T02:03:25.765Z,18.87
2018-10-12T02:05:52.905Z,18.87
2018-10-12T02:08:20.056Z,18.93
2018-10-12T02:10:47.330Z,18.97
2018-10-12T02:13:14.922Z,19.03
2018-10-12T02:15:42.165Z,18.93
2018-10-12T02:18:09.371Z,19.03
2018-10-12T02:20:36.509Z,18.93
2018-10-12T02:23:03.695Z,19.77
2018-10-12T02:25:30.933Z,21.77
2018-10-12T02:27:58.057Z,20.77
2018-10-12T02:30:25.218Z,20.67
2018-10-12T02:32:52.415Z,21.03
2018-10-12T02:35:19.560Z,22.17
2018-10-12T02:37:46.705Z,22.40
2018-10-12T02:40:13.916Z,21.77
2018-10-12T02:42:41.060Z,21.20
2018-10-12T02:45:08.209Z,21.77
2018-10-12T02:47:35.382Z,21.37
2018-10-12T02:50:02.820Z,20.97
2018-10-12T02:52:29.972Z,20.17
2018-10-12T02:54:57.152Z,20.90
2018-10-12T02:57:24.335Z,20.27
2018-10-12T02:59:51.497Z,20.07
2018-10-12T03:02:18.757Z,22.13
2018-10-12T03:04:45.898Z,21.13
2018-10-12T03:07:13.053Z,21.77
2018-10-12T03:09:40.251Z,21.47
2018-10-12T03:12:07.400Z,21.90
2018-10-12T03:14:34.615Z,22.30
2018-10-12T03:17:01.819Z,22.13
2018-10-12T03:19:28.984Z,22.57
2018-10-12T03:21:56.141Z,23.07
2018-10-12T03:24:23.340Z,23.07
2018-10-12T03:26:50.473Z,22.90
2018-10-12T03:29:17.636Z,22.67
2018-10-12T03:31:44.889Z,23.13
2018-10-12T03:34:12.026Z,22.13
2018-10-12T03:36:40.326Z,23.80
2018-10-12T03:39:08.043Z,22.10
2018-10-12T03:41:41.879Z,23.03
2018-10-12T03:44:20.958Z,22.67
2018-10-12T03:46:48.425Z,22.80
2018-10-12T03:49:15.624Z,21.90
2018-10-12T03:51:42.891Z,23.30
2018-10-12T03:54:10.260Z,22.80
2018-10-12T03:56:37.484Z,22.97
2018-10-12T03:59:04.620Z,23.20
2018-10-12T04:01:31.773Z,22.53
2018-10-12T04:04:00.353Z,22.90
2018-10-12T04:06:27.629Z,22.97
2018-10-12T04:08:54.766Z,23.27
2018-10-12T04:11:22.138Z,22.40
2018-10-12T04:13:49.319Z,22.27
2018-10-12T04:16:16.526Z,23.17
2018-10-12T04:18:43.709Z,22.13
2018-10-12T04:21:10.902Z,22.23
2018-10-12T04:23:38.085Z,22.07
2018-10-12T04:26:05.287Z,23.60
2018-10-12T04:28:32.549Z,24.50
2018-10-12T04:30:59.783Z,23.93
2018-10-12T04:33:27.080Z,24.27
2018-10-12T04:35:54.267Z,24.57
2018-10-12T04:38:21.431Z,25.83
2018-10-12T04:41:13.518Z,24.40
2018-10-12T04:43:40.917Z,24.67
2018-10-12T04:46:10.664Z,23.77
2018-10-12T04:48:38.198Z,24.63
2018-10-12T04:51:09.631Z,24.03
2018-10-12T04:53:36.959Z,25.23
2018-10-12T04:56:08.754Z,24.50
2018-10-12T04:58:36.437Z,25.10
2018-10-12T05:01:06.325Z,24.60
2018-10-12T05:03:33.788Z,25.30
2018-10-12T05:06:01.061Z,25.03
2018-10-12T05:08:28.216Z,25.13
2018-10-12T05:10:55.426Z,25.27
2018-10-12T05:13:22.577Z,25.63
2018-10-12T05:15:49.741Z,25.33
2018-10-12T05:18:16.921Z,26.03
2018-10-12T05:20:44.061Z,26.93
2018-10-12T05:23:12.285Z,25.57
2018-10-12T05:25:39.478Z,25.67
2018-10-12T05:28:06.648Z,26.87
2018-10-12T05:30:33.805Z,25.80
2018-10-12T05:33:01.036Z,24.97
2018-10-12T05:35:28.238Z,26.13
2018-10-12T05:37:55.448Z,25.03
2018-10-12T05:40:24.353Z,25.73
2018-10-12T05:42:51.588Z,26.20
2018-10-12T05:45:18.700Z,26.43
2018-10-12T05:47:45.906Z,26.20
2018-10-12T05:50:13.106Z,26.30
2018-10-12T05:52:41.372Z,25.90
2018-10-12T05:55:08.778Z,25.70
2018-10-12T05:57:38.938Z,26.90
2018-10-12T06:00:06.335Z,26.33
2018-10-12T06:02:33.556Z,26.43
2018-10-12T06:05:00.717Z,26.30
2018-10-12T06:07:28.105Z,26.47
2018-10-12T06:09:55.446Z,25.67
2018-10-12T06:12:22.469Z,26.83
2018-10-12T06:14:49.670Z,27.10
2018-10-12T06:17:16.900Z,25.70
2018-10-12T06:19:44.062Z,25.90
2018-10-12T06:22:11.289Z,25.40
2018-10-12T06:24:38.529Z,25.87
2018-10-12T06:27:05.722Z,24.57
2018-10-12T06:29:32.896Z,23.63
2018-10-12T06:32:00.514Z,24.20
2018-10-12T06:34:27.763Z,24.97
2018-10-12T06:36:54.969Z,24.23
2018-10-12T06:39:22.203Z,22.53
2018-10-12T06:41:49.538Z,23.70
2018-10-12T06:44:16.662Z,24.57
2018-10-12T06:46:44.125Z,24.10
2018-10-12T06:49:11.319Z,25.73
2018-10-12T06:51:39.563Z,23.37
2018-10-12T06:54:07.372Z,24.27
2018-10-12T06:56:34.720Z,24.27
2018-10-12T06:59:02.100Z,25.00
2018-10-12T07:01:29.874Z,24.50
2018-10-12T07:03:57.285Z,24.10
2018-10-12T07:06:24.462Z,24.40
2018-10-12T07:08:51.908Z,23.93
2018-10-12T07:11:19.119Z,23.23
2018-10-12T07:13:51.864Z,22.40
2018-10-12T07:16:19.608Z,21.93
2018-10-12T07:18:46.994Z,22.40
2018-10-12T07:21:14.297Z,21.80
2018-10-12T07:23:43.405Z,21.37
2018-10-12T07:26:10.621Z,20.53
2018-10-12T07:28:37.910Z,22.13
2018-10-12T07:31:05.721Z,20.17
2018-10-12T07:33:32.982Z,20.10
2018-10-12T07:36:00.936Z,19.63
2018-10-12T07:38:27.551Z,19.60
2018-10-12T07:40:54.844Z,19.50
2018-10-12T07:43:22.222Z,19.33
2018-10-12T07:45:49.605Z,18.30
2018-10-12T07:48:16.976Z,19.73
2018-10-12T07:50:44.381Z,17.90
2018-10-12T07:53:11.910Z,18.50
2018-10-12T07:55:39.160Z,18.73
2018-10-12T07:58:06.424Z,18.10
2018-10-12T08:00:33.870Z,18.83
2018-10-12T08:03:00.959Z,18.23
2018-10-12T08:05:28.185Z,18.10
2018-10-12T08:07:55.425Z,17.93
2018-10-12T08:10:22.711Z,16.83
2018-10-12T08:12:49.937Z,17.17
2018-10-12T08:15:17.190Z,17.77
2018-10-12T08:17:44.398Z,16.60
2018-10-12T08:20:11.932Z,16.93
2018-10-12T08:22:39.126Z,17.00
2018-10-12T08:25:06.440Z,16.03
2018-10-12T08:27:36.475Z,16.57
2018-10-12T08:30:04.441Z,15.80
2018-10-12T08:32:31.795Z,16.27
2018-10-12T08:34:59.093Z,16.40
2018-10-12T08:37:30.037Z,16.87
2018-10-12T08:39:57.356Z,14.93
2018-10-12T08:42:24.592Z,16.63
2018-10-12T08:44:51.784Z,15.27
2018-10-12T08:47:19.185Z,15.40
2018-10-12T08:49:46.462Z,16.30
2018-10-12T08:52:13.689Z,15.37
2018-10-12T08:54:40.910Z,15.63
2018-10-12T08:57:08.156Z,16.33
2018-10-12T08:59:35.365Z,16.97
2018-10-12T09:02:06.941Z,16.60
2018-10-12T09:04:34.244Z,16.43
2018-10-12T09:07:03.525Z,16.93
2018-10-12T09:09:30.752Z,17.07
2018-10-12T09:11:58.093Z,16.63
2018-10-12T09:14:25.286Z,16.07
2018-10-12T09:16:52.466Z,15.77
2018-10-12T09:19:19.796Z,16.13
2018-10-12T09:21:47.068Z,15.73
2018-10-12T09:24:14.335Z,16.17
2018-10-12T09:26:41.638Z,15.23
2018-10-12T09:29:08.832Z,15.60
2018-10-12T09:31:36.047Z,15.17
2018-10-12T09:34:03.337Z,15.57
2018-10-12T09:36:30.631Z,15.30
2018-10-12T09:38:57.890Z,14.73
2018-10-12T09:41:25.238Z,15.10
2018-10-12T09:43:52.469Z,16.07
2018-10-12T09:46:19.663Z,16.53
2018-10-12T09:48:46.880Z,15.73
2018-10-12T09:51:14.066Z,16.33
2018-10-12T09:53:41.237Z,15.87
2018-10-12T09:56:08.607Z,16.43
2018-10-12T09:58:35.897Z,15.77
2018-10-12T10:01:08.853Z,16.37
2018-10-12T10:03:41.727Z,15.73
2018-10-12T10:06:09.039Z,15.13
2018-10-12T10:08:36.468Z,15.70
2018-10-12T10:11:11.377Z,14.80
2018-10-12T10:13:38.825Z,14.97
2018-10-12T10:16:06.054Z,14.93
2018-10-12T10:18:33.289Z,14.57
2018-10-12T10:21:00.600Z,14.10
2018-10-12T10:23:27.879Z,14.17
2018-10-12T10:25:55.279Z,13.53
2018-10-12T10:28:26.140Z,14.03
2018-10-12T10:30:53.446Z,13.23
2018-10-12T10:33:20.760Z,13.63
2018-10-12T10:35:47.933Z,13.33
2018-10-12T10:38:16.167Z,12.87
2018-10-12T10:40:43.412Z,13.37
2018-10-12T10:43:10.621Z,13.53
2018-10-12T10:45:37.926Z,13.60
2018-10-12T10:48:05.199Z,14.13
2018-10-12T10:50:32.628Z,13.63
2018-10-12T10:52:59.973Z,12.43
2018-10-12T10:55:27.441Z,12.53
2018-10-12T10:57:54.720Z,13.67
2018-10-12T11:00:22.221Z,12.37
2018-10-12T11:02:49.678Z,12.50
2018-10-12T11:05:16.964Z,12.07
2018-10-12T11:07:45.321Z,11.33
2018-10-12T11:10:12.641Z,11.80
2018-10-12T11:12:40.145Z,11.57
2018-10-12T11:15:07.484Z,12.67
2018-10-12T11:17:34.738Z,12.70
2018-10-12T11:20:02.007Z,13.10
2018-10-12T11:22:29.269Z,13.00
2018-10-12T11:25:00.261Z,12.10
2018-10-12T11:27:27.464Z,11.20
2018-10-12T11:29:54.610Z,11.67
2018-10-12T11:32:21.841Z,11.40
2018-10-12T11:34:49.006Z,11.40
2018-10-12T11:37:16.397Z,11.40
2018-10-12T11:39:44.868Z,11.33
2018-10-12T11:42:12.075Z,11.10
2018-10-12T11:44:39.369Z,10.73
2018-10-12T11:47:07.622Z,10.90
2018-10-12T11:49:34.792Z,10.87
2018-10-12T11:52:02.011Z,10.27
2018-10-12T11:54:29.350Z,10.37
2018-10-12T11:56:57.029Z,10.63
2018-10-12T11:59:25.545Z,10.73
2018-10-12T12:01:52.883Z,10.60
2018-10-12T12:04:20.683Z,10.57
2018-10-12T12:06:47.956Z,9.87
2018-10-12T12:09:15.348Z,9.60
2018-10-12T12:11:43.716Z,10.00
2018-10-12T12:14:10.944Z,9.80
2018-10-12T12:16:38.451Z,9.73
2018-10-12T12:19:05.624Z,10.00
2018-10-12T12:21:32.993Z,9.93
2018-10-12T12:24:00.829Z,9.87
2018-10-12T12:26:30.009Z,9.57
2018-10-12T12:28:58.673Z,10.63
2018-10-12T12:31:30.285Z,9.60
2018-10-12T12:33:57.895Z,10.97
2018-10-12T12:36:25.202Z,10.37
2018-10-12T12:38:52.418Z,10.60
2018-10-12T12:41:21.034Z,9.33
2018-10-12T12:43:48.218Z,10.50
2018-10-12T12:46:16.013Z,10.57
2018-10-12T12:48:43.585Z,10.03
2018-10-12T12:51:11.949Z,9.83
2018-10-12T12:53:39.167Z,10.47
2018-10-12T12:56:07.300Z,10.10
2018-10-12T12:58:34.504Z,11.23
2018-10-12T13:01:01.827Z,10.57
2018-10-12T13:03:29.044Z,10.80
2018-10-12T13:05:56.272Z,10.77
2018-10-12T13:08:23.457Z,10.80
2018-10-12T13:10:50.647Z,11.20
2018-10-12T13:13:17.816Z,10.50
2018-10-12T13:15:45.046Z,10.63
2018-10-12T13:18:12.349Z,9.07
2018-10-12T13:20:39.486Z,10.30
2018-10-12T13:23:06.667Z,9.93
2018-10-12T13:25:33.887Z,9.97
2018-10-12T13:28:01.023Z,10.13
2018-10-12T13:30:28.241Z,10.03
2018-10-12T13:32:55.476Z,10.70
2018-10-12T13:35:22.629Z,11.07
2018-10-12T13:37:49.999Z,10.50
2018-10-12T13:40:17.155Z,10.27
2018-10-12T13:42:44.325Z,10.30
2018-10-12T13:45:11.521Z,10.10
2018-10-12T13:47:38.670Z,10.40
2018-10-12T13:50:06.420Z,9.97
2018-10-12T13:52:33.650Z,10.10
2018-10-12T13:55:00.780Z,10.00
2018-10-12T13:57:27.937Z,9.10
2018-10-12T13:59:55.152Z,9.90
2018-10-12T14:02:22.345Z,9.87
2018-10-12T14:04:49.474Z,10.43
2018-10-12T14:07:16.740Z,10.37
2018-10-12T14:09:43.905Z,9.87
2018-10-12T14:12:11.083Z,9.73
2018-10-12T14:14:38.468Z,10.03
2018-10-12T14:17:05.985Z,9.60
2018-10-12T14:19:33.286Z,10.07
2018-10-12T14:22:00.504Z,9.67
2018-10-12T14:24:27.659Z,9.57
2018-10-12T14:26:54.859Z,10.23
2018-10-12T14:29:22.033Z,9.30
2018-10-12T14:31:49.202Z,9.27
2018-10-12T14:34:16.361Z,9.00
2018-10-12T14:36:43.705Z,9.77
2018-10-12T14:39:10.905Z,9.27
2018-10-12T14:41:38.203Z,9.57
2018-10-12T14:44:05.598Z,9.33
2018-10-12T14:46:32.860Z,9.30
2018-10-12T14:49:00.237Z,9.60
2018-10-12T14:51:27.554Z,9.47
2018-10-12T14:53:54.756Z,9.87
2018-10-12T14:56:21.913Z,9.40
2018-10-12T14:58:49.277Z,9.10
2018-10-12T15:01:16.662Z,9.43
2018-10-12T15:03:43.975Z,10.10
2018-10-12T15:06:19.631Z,10.17
2018-10-12T15:08:46.906Z,10.30
2018-10-12T15:11:15.130Z,10.30
2018-10-12T15:13:42.412Z,9.13
2018-10-12T15:16:09.634Z,9.70
2018-10-12T15:18:36.886Z,9.47
2018-10-12T15:21:04.337Z,9.77
2018-10-12T15:23:32.276Z,10.07
2018-10-12T15:26:00.014Z,9.73
2018-10-12T15:28:27.274Z,9.27
2018-10-12T15:30:54.454Z,9.70
2018-10-12T15:33:22.672Z,10.00
2018-10-12T15:36:01.719Z,10.00
2018-10-12T15:38:32.297Z,9.90
2018-10-12T15:41:00.406Z,9.37
2018-10-12T15:43:27.667Z,9.80
2018-10-12T15:45:55.912Z,9.93
2018-10-12T15:48:23.523Z,11.07
2018-10-12T15:50:51.607Z,9.53
2018-10-12T15:53:23.360Z,10.17
2018-10-12T15:55:50.590Z,9.83
2018-10-12T15:58:26.218Z,10.20
2018-10-12T16:00:54.586Z,10.53
2018-10-12T16:03:23.227Z,11.00
2018-10-12T16:05:57.960Z,11.10
2018-10-12T16:08:27.292Z,11.37
2018-10-12T16:11:01.304Z,11.40
2018-10-12T16:13:32.650Z,11.27
2018-10-12T16:16:13.233Z,10.90
2018-10-12T16:18:51.172Z,12.03
2018-10-12T16:21:25.261Z,13.13
2018-10-12T16:23:54.900Z,12.50
2018-10-12T16:26:24.264Z,12.23
2018-10-12T16:28:59.774Z,12.83
2018-10-12T16:31:28.987Z,13.13
2018-10-12T16:33:56.325Z,13.33
2018-10-12T16:36:25.644Z,13.67
2018-10-12T16:38:53.002Z,12.93
2018-10-12T16:41:22.318Z,14.27
2018-10-12T16:43:49.588Z,14.27
2018-10-12T16:46:17.314Z,14.03
2018-10-12T16:48:44.601Z,15.93
2018-10-12T16:51:11.935Z,13.93
2018-10-12T16:53:39.257Z,15.53
2018-10-12T16:56:06.509Z,15.70
2018-10-12T16:58:33.748Z,15.40
2018-10-12T17:01:03.024Z,14.60
2018-10-12T17:03:30.639Z,15.73
2018-10-12T17:05:58.054Z,17.47
2018-10-12T17:08:25.543Z,18.80
2018-10-12T17:10:52.806Z,23.10
2018-10-12T17:17:21.979Z,22.90
2018-10-12T17:19:56.196Z,23.23
2018-10-12T17:22:25.655Z,21.57
2018-10-12T17:28:01.696Z,22.00
2018-10-12T17:33:29.056Z,24.77
2018-10-12T17:36:01.421Z,24.47
2018-10-12T17:38:28.694Z,22.30
2018-10-12T17:40:55.944Z,22.50
2018-10-12T17:43:25.126Z,21.13
2018-10-12T17:45:52.635Z,20.60
2018-10-12T17:48:21.112Z,20.50
2018-10-12T17:50:58.414Z,21.90
2018-10-12T17:53:25.625Z,22.47
2018-10-12T17:55:56.067Z,23.97
2018-10-12T17:58:26.705Z,25.73
2018-10-12T18:00:55.592Z,27.60
2018-10-12T18:03:24.082Z,28.53
2018-10-12T18:05:51.390Z,26.77
2018-10-12T18:08:18.706Z,27.40
2018-10-12T18:10:46.005Z,26.07
2018-10-12T18:13:13.284Z,25.50
2018-10-12T18:15:40.472Z,25.70
2018-10-12T18:18:07.771Z,27.20
2018-10-12T18:20:35.114Z,27.63
2018-10-12T18:23:02.405Z,26.10
2018-10-12T18:25:30.657Z,26.97
2018-10-12T18:27:58.644Z,27.57
2018-10-12T18:30:26.256Z,27.30
2018-10-12T18:32:53.530Z,27.10
2018-10-12T18:35:20.785Z,27.33
2018-10-12T18:37:51.889Z,27.20
2018-10-12T18:40:19.092Z,27.17
2018-10-12T18:42:49.837Z,27.00
2018-10-12T18:45:17.005Z,25.07
2018-10-12T18:47:44.285Z,26.77
2018-10-12T18:50:11.531Z,26.07
2018-10-12T18:52:38.696Z,25.73
2018-10-12T18:55:05.891Z,24.63
2018-10-12T18:57:33.860Z,24.80
2018-10-12T19:00:05.999Z,24.73
2018-10-12T19:02:35.010Z,24.93
2018-10-12T19:05:02.536Z,24.67
2018-10-12T19:07:30.158Z,26.80
2018-10-12T19:09:57.474Z,26.20
2018-10-12T19:12:24.908Z,25.93
2018-10-12T19:14:52.076Z,25.80
2018-10-12T19:17:19.233Z,24.67
2018-10-12T19:19:46.385Z,24.17
2018-10-12T19:22:13.601Z,23.80
2018-10-12T19:24:40.832Z,23.63
2018-10-12T19:27:08.025Z,25.87
2018-10-12T19:29:35.129Z,23.33
2018-10-12T19:32:02.294Z,22.20
2018-10-12T19:34:30.058Z,22.50
2018-10-12T19:36:57.253Z,23.03
2018-10-12T19:39:24.413Z,23.87
2018-10-12T19:41:51.583Z,23.30
2018-10-12T19:44:18.685Z,23.87
2018-10-12T19:46:45.848Z,23.40
2018-10-12T19:49:13.089Z,22.50
2018-10-12T19:51:40.228Z,24.87
2018-10-12T19:54:07.431Z,25.67
2018-10-12T19:56:34.558Z,24.27
2018-10-12T19:59:01.695Z,22.90
2018-10-12T20:01:28.945Z,22.60
2018-10-12T20:03:56.201Z,24.80
2018-10-12T20:06:23.508Z,25.17
2018-10-12T20:08:50.686Z,23.30
2018-10-12T20:11:17.821Z,25.17
2018-10-12T20:13:44.940Z,25.93
2018-10-12T20:16:12.172Z,24.37
2018-10-12T20:18:39.294Z,25.33
2018-10-12T20:21:06.553Z,26.47
2018-10-12T20:23:33.902Z,25.83
2018-10-12T20:26:01.130Z,24.67
2018-10-12T20:28:28.255Z,25.40
2018-10-12T20:30:55.417Z,25.20
2018-10-12T20:33:22.546Z,25.73
2018-10-12T20:35:49.733Z,25.10
2018-10-12T20:40:18.751Z,25.37
2018-10-12T20:42:46.216Z,23.27
2018-10-12T20:45:14.105Z,24.87
2018-10-12T20:47:41.373Z,24.80
2018-10-12T20:50:08.681Z,25.27
2018-10-12T20:52:35.824Z,24.97
2018-10-12T20:55:03.036Z,26.03
2018-10-12T20:57:30.220Z,24.60
2018-10-12T20:59:57.396Z,26.10
2018-10-12T21:02:24.624Z,25.67
2018-10-12T21:04:51.833Z,26.70
2018-10-12T21:07:18.996Z,25.50
2018-10-12T21:09:46.293Z,26.70
2018-10-12T21:12:13.450Z,24.63
2018-10-12T21:14:40.625Z,23.90
2018-10-12T21:17:07.895Z,24.63
2018-10-12T21:19:35.076Z,24.50
2018-10-12T21:22:02.300Z,24.83
2018-10-12T21:24:29.581Z,24.80
2018-10-12T21:26:56.862Z,24.60
2018-10-12T21:29:24.083Z,28.13
2018-10-12T21:31:51.328Z,27.53
2018-10-12T21:34:19.187Z,25.87
2018-10-12T21:36:46.349Z,27.30
2018-10-12T21:39:13.929Z,27.30
2018-10-12T21:41:41.131Z,27.23
2018-10-12T21:44:08.503Z,26.63
2018-10-12T21:46:35.740Z,27.00
2018-10-12T21:49:02.926Z,27.70
2018-10-12T21:51:30.109Z,28.80
2018-10-12T21:53:57.311Z,26.67
2018-10-12T21:56:24.521Z,26.33
2018-10-12T21:58:51.672Z,27.23
2018-10-12T22:01:18.876Z,26.87
2018-10-12T22:03:46.012Z,27.30
2018-10-12T22:06:13.165Z,27.93
2018-10-12T22:08:46.118Z,29.00
2018-10-12T22:11:13.433Z,27.77
2018-10-12T22:13:40.718Z,27.50
2018-10-12T22:16:07.969Z,28.93
2018-10-12T22:18:35.171Z,29.13
2018-10-12T22:21:02.386Z,28.90
2018-10-12T22:23:29.641Z,26.77
2018-10-12T22:25:56.913Z,29.03
2018-10-12T22:28:24.128Z,29.80
2018-10-12T22:30:51.403Z,29.23
2018-10-12T22:33:18.588Z,28.97
2018-10-12T22:35:45.732Z,29.93
2018-10-12T22:38:12.973Z,29.63
2018-10-12T22:40:40.165Z,28.77
2018-10-12T22:43:07.362Z,28.23
2018-10-12T22:45:34.545Z,27.63
2018-10-12T22:48:01.712Z,27.60
2018-10-12T22:50:29.004Z,27.10
2018-10-12T22:52:56.237Z,27.20
2018-10-12T22:55:23.441Z,28.20
2018-10-12T22:57:55.211Z,26.10
2018-10-12T23:00:22.507Z,25.73
2018-10-12T23:02:49.665Z,26.70
2018-10-12T23:05:16.805Z,28.20
2018-10-12T23:07:44.031Z,26.53
2018-10-12T23:10:11.165Z,27.43
2018-10-12T23:12:38.366Z,26.97
2018-10-12T23:15:05.573Z,26.17
2018-10-12T23:17:32.781Z,25.03
2018-10-12T23:19:59.954Z,26.17
2018-10-12T23:22:27.177Z,26.13
2018-10-12T23:24:54.342Z,25.63
2018-10-12T23:27:21.482Z,25.63
2018-10-12T23:29:48.714Z,25.10
2018-10-12T23:32:15.889Z,27.13
2018-10-12T23:34:43.053Z,26.27
2018-10-12T23:37:10.220Z,25.60
2018-10-12T23:39:37.402Z,25.60
2018-10-12T23:42:04.660Z,25.30
2018-10-12T23:44:31.863Z,24.87
2018-10-12T23:46:59.036Z,25.40
2018-10-12T23:49:26.225Z,26.37
2018-10-12T23:51:53.500Z,26.23
2018-10-12T23:54:20.696Z,26.40
2018-10-12T23:56:47.837Z,26.53
2018-10-12T23:59:15.033Z,26.43
